sensor_id;sensor_type;location;lat;lon;timestamp;pressure;altitude;pressure_sealevel;temperature;humidity
25350;BME280;13302;48.796;11.978;2024-02-15T00:02:00;97361.28;;;8.25;46.06
25350;BME280;13302;48.796;11.978;2024-02-15T00:04:47;97355.47;;;8.27;46.39
25350;BME280;13302;48.796;11.978;2024-02-15T00:07:34;97346.38;;;8.35;46.15
25350;BME280;13302;48.796;11.978;2024-02-15T00:10:21;97342.97;;;8.38;45.92
25350;BME280;13302;48.796;11.978;2024-02-15T00:13:12;97342.16;;;8.38;46.35
25350;BME280;13302;48.796;11.978;2024-02-15T00:15:59;97338.28;;;8.39;46.35
25350;BME280;13302;48.796;11.978;2024-02-15T00:18:47;97341.84;;;8.39;46.37
25350;BME280;13302;48.796;11.978;2024-02-15T00:21:36;97339.91;;;8.40;46.33
25350;BME280;13302;48.796;11.978;2024-02-15T00:24:23;97344.44;;;8.44;45.98
25350;BME280;13302;48.796;11.978;2024-02-15T00:27:17;97357.25;;;8.40;46.34
25350;BME280;13302;48.796;11.978;2024-02-15T00:30:04;97344.09;;;8.46;45.89
25350;BME280;13302;48.796;11.978;2024-02-15T00:32:54;97344.25;;;8.49;45.94
25350;BME280;13302;48.796;11.978;2024-02-15T00:35:42;97333.88;;;8.46;45.75
25350;BME280;13302;48.796;11.978;2024-02-15T00:38:33;97341.03;;;8.47;45.84
25350;BME280;13302;48.796;11.978;2024-02-15T00:41:20;97345.56;;;8.43;46.19
25350;BME280;13302;48.796;11.978;2024-02-15T00:44:09;97342.47;;;8.45;45.99
25350;BME280;13302;48.796;11.978;2024-02-15T00:46:57;97339.72;;;8.45;46.22
25350;BME280;13302;48.796;11.978;2024-02-15T00:49:44;97340.72;;;8.40;46.02
25350;BME280;13302;48.796;11.978;2024-02-15T00:52:31;97340.38;;;8.42;45.98
25350;BME280;13302;48.796;11.978;2024-02-15T00:55:19;97335.69;;;8.42;46.27
25350;BME280;13302;48.796;11.978;2024-02-15T00:58:07;97337.16;;;8.57;45.58
25350;BME280;13302;48.796;11.978;2024-02-15T01:00:54;97339.72;;;8.62;45.56
25350;BME280;13302;48.796;11.978;2024-02-15T01:03:41;97347.19;;;8.61;45.61
25350;BME280;13302;48.796;11.978;2024-02-15T01:06:28;97336.50;;;8.51;45.65
25350;BME280;13302;48.796;11.978;2024-02-15T01:09:15;97336.81;;;8.50;45.83
25350;BME280;13302;48.796;11.978;2024-02-15T01:12:03;97338.75;;;8.49;45.55
25350;BME280;13302;48.796;11.978;2024-02-15T01:14:50;97335.84;;;8.37;46.04
25350;BME280;13302;48.796;11.978;2024-02-15T01:17:38;97336.00;;;8.41;46.01
25350;BME280;13302;48.796;11.978;2024-02-15T01:20:25;97324.50;;;8.39;46.01
25350;BME280;13302;48.796;11.978;2024-02-15T01:23:13;97330.16;;;8.42;45.65
25350;BME280;13302;48.796;11.978;2024-02-15T01:26:01;97337.31;;;8.43;45.91
25350;BME280;13302;48.796;11.978;2024-02-15T01:28:48;97328.38;;;8.46;45.45
25350;BME280;13302;48.796;11.978;2024-02-15T01:31:35;97330.00;;;8.39;45.82
25350;BME280;13302;48.796;11.978;2024-02-15T01:34:22;97325.31;;;8.48;45.81
25350;BME280;13302;48.796;11.978;2024-02-15T01:37:10;97326.75;;;8.45;45.71
25350;BME280;13302;48.796;11.978;2024-02-15T01:39:57;97322.22;;;8.41;45.87
25350;BME280;13302;48.796;11.978;2024-02-15T01:42:45;97322.06;;;8.37;45.70
25350;BME280;13302;48.796;11.978;2024-02-15T01:45:32;97324.34;;;8.44;45.64
25350;BME280;13302;48.796;11.978;2024-02-15T01:48:19;97325.78;;;8.41;45.90
25350;BME280;13302;48.796;11.978;2024-02-15T01:51:07;97324.00;;;8.37;46.04
25350;BME280;13302;48.796;11.978;2024-02-15T01:53:57;97337.63;;;8.33;46.04
25350;BME280;13302;48.796;11.978;2024-02-15T01:56:44;97335.69;;;8.34;46.32
25350;BME280;13302;48.796;11.978;2024-02-15T01:59:31;97320.94;;;8.38;45.83
25350;BME280;13302;48.796;11.978;2024-02-15T02:02:20;97331.44;;;8.45;45.98
25350;BME280;13302;48.796;11.978;2024-02-15T02:05:09;97324.19;;;8.40;46.02
25350;BME280;13302;48.796;11.978;2024-02-15T02:07:57;97328.38;;;8.38;46.18
25350;BME280;13302;48.796;11.978;2024-02-15T02:10:52;97312.19;;;8.36;46.38
25350;BME280;13302;48.796;11.978;2024-02-15T02:13:39;97315.59;;;8.33;46.62
25350;BME280;13302;48.796;11.978;2024-02-15T02:16:27;97307.00;;;8.35;46.88
25350;BME280;13302;48.796;11.978;2024-02-15T02:19:16;97309.44;;;8.36;46.71
25350;BME280;13302;48.796;11.978;2024-02-15T02:22:04;97306.84;;;8.40;47.01
25350;BME280;13302;48.796;11.978;2024-02-15T02:25:28;97310.06;;;8.42;46.83
25350;BME280;13302;48.796;11.978;2024-02-15T02:28:09;97304.56;;;8.42;46.81
25350;BME280;13302;48.796;11.978;2024-02-15T02:30:56;97303.13;;;8.44;46.94
25350;BME280;13302;48.796;11.978;2024-02-15T02:33:51;97297.25;;;8.46;47.33
25350;BME280;13302;48.796;11.978;2024-02-15T02:36:45;97308.78;;;8.48;47.31
25350;BME280;13302;48.796;11.978;2024-02-15T02:39:34;97315.75;;;8.54;47.04
25350;BME280;13302;48.796;11.978;2024-02-15T02:42:22;97315.13;;;8.57;47.14
25350;BME280;13302;48.796;11.978;2024-02-15T02:45:09;97316.09;;;8.61;47.36
25350;BME280;13302;48.796;11.978;2024-02-15T02:47:56;97321.38;;;8.74;46.97
25350;BME280;13302;48.796;11.978;2024-02-15T02:50:44;97319.13;;;8.77;46.73
25350;BME280;13302;48.796;11.978;2024-02-15T02:53:31;97320.25;;;8.75;46.87
25350;BME280;13302;48.796;11.978;2024-02-15T02:56:18;97316.22;;;8.73;46.77
25350;BME280;13302;48.796;11.978;2024-02-15T02:59:05;97315.56;;;8.76;47.15
25350;BME280;13302;48.796;11.978;2024-02-15T03:01:54;97325.44;;;8.77;46.75
25350;BME280;13302;48.796;11.978;2024-02-15T03:04:43;97316.03;;;8.78;47.00
25350;BME280;13302;48.796;11.978;2024-02-15T03:07:34;97316.84;;;8.79;46.81
25350;BME280;13302;48.796;11.978;2024-02-15T03:10:21;97305.16;;;8.82;46.80
25350;BME280;13302;48.796;11.978;2024-02-15T03:13:08;97307.59;;;8.83;47.11
25350;BME280;13302;48.796;11.978;2024-02-15T03:15:56;97297.88;;;8.86;47.10
25350;BME280;13302;48.796;11.978;2024-02-15T03:18:43;97296.69;;;8.87;46.74
25350;BME280;13302;48.796;11.978;2024-02-15T03:21:30;97308.22;;;8.89;46.71
25350;BME280;13302;48.796;11.978;2024-02-15T03:24:18;97309.84;;;8.90;47.04
25350;BME280;13302;48.796;11.978;2024-02-15T03:27:05;97304.00;;;8.91;46.87
25350;BME280;13302;48.796;11.978;2024-02-15T03:29:52;97313.06;;;8.92;46.56
25350;BME280;13302;48.796;11.978;2024-02-15T03:32:40;97310.97;;;8.97;46.71
25350;BME280;13302;48.796;11.978;2024-02-15T03:35:27;97311.28;;;8.96;46.41
25350;BME280;13302;48.796;11.978;2024-02-15T03:38:18;97310.63;;;8.90;46.54
25350;BME280;13302;48.796;11.978;2024-02-15T03:41:05;97303.53;;;8.89;46.34
25350;BME280;13302;48.796;11.978;2024-02-15T03:43:52;97303.53;;;8.89;46.68
25350;BME280;13302;48.796;11.978;2024-02-15T03:46:40;97312.25;;;8.91;46.36
25350;BME280;13302;48.796;11.978;2024-02-15T03:49:27;97313.75;;;8.89;46.29
25350;BME280;13302;48.796;11.978;2024-02-15T03:52:14;97308.41;;;8.84;46.62
25350;BME280;13302;48.796;11.978;2024-02-15T03:55:02;97312.78;;;8.85;46.75
25350;BME280;13302;48.796;11.978;2024-02-15T03:57:50;97311.66;;;8.86;46.64
25350;BME280;13302;48.796;11.978;2024-02-15T04:00:37;97316.00;;;8.87;46.41
25350;BME280;13302;48.796;11.978;2024-02-15T04:03:26;97324.13;;;8.83;46.55
25350;BME280;13302;48.796;11.978;2024-02-15T04:06:13;97320.25;;;8.84;46.34
25350;BME280;13302;48.796;11.978;2024-02-15T04:09:00;97316.50;;;8.89;46.56
25350;BME280;13302;48.796;11.978;2024-02-15T04:11:47;97317.78;;;8.91;46.18
25350;BME280;13302;48.796;11.978;2024-02-15T04:14:40;97318.63;;;8.83;46.80
25350;BME280;13302;48.796;11.978;2024-02-15T04:17:27;97322.84;;;8.81;46.56
25350;BME280;13302;48.796;11.978;2024-02-15T04:20:17;97317.81;;;8.83;46.29
25350;BME280;13302;48.796;11.978;2024-02-15T04:23:04;97318.28;;;8.85;46.67
25350;BME280;13302;48.796;11.978;2024-02-15T04:25:52;97311.31;;;8.79;46.84
25350;BME280;13302;48.796;11.978;2024-02-15T04:28:40;97326.25;;;8.77;46.75
25350;BME280;13302;48.796;11.978;2024-02-15T04:31:28;97327.06;;;8.78;46.93
25350;BME280;13302;48.796;11.978;2024-02-15T04:34:16;97328.22;;;8.77;46.66
25350;BME280;13302;48.796;11.978;2024-02-15T04:37:03;97317.50;;;8.75;46.93
25350;BME280;13302;48.796;11.978;2024-02-15T04:39:53;97316.69;;;8.75;46.90
25350;BME280;13302;48.796;11.978;2024-02-15T04:42:40;97320.25;;;8.75;46.59
25350;BME280;13302;48.796;11.978;2024-02-15T04:45:28;97309.41;;;8.70;46.93
25350;BME280;13302;48.796;11.978;2024-02-15T04:48:24;97304.69;;;8.71;46.77
25350;BME280;13302;48.796;11.978;2024-02-15T04:51:12;97316.53;;;8.71;46.78
25350;BME280;13302;48.796;11.978;2024-02-15T04:53:59;97319.44;;;8.75;46.43
25350;BME280;13302;48.796;11.978;2024-02-15T04:56:48;97307.59;;;8.74;46.64
25350;BME280;13302;48.796;11.978;2024-02-15T04:59:39;97314.91;;;8.70;47.16
25350;BME280;13302;48.796;11.978;2024-02-15T05:02:26;97305.50;;;8.71;46.86
25350;BME280;13302;48.796;11.978;2024-02-15T05:05:13;97309.56;;;8.65;47.21
25350;BME280;13302;48.796;11.978;2024-02-15T05:08:00;97310.88;;;8.68;47.18
25350;BME280;13302;48.796;11.978;2024-02-15T05:10:48;97306.31;;;8.72;46.99
25350;BME280;13302;48.796;11.978;2024-02-15T05:13:35;97307.13;;;8.81;46.56
25350;BME280;13302;48.796;11.978;2024-02-15T05:16:22;97307.94;;;8.73;46.78
25350;BME280;13302;48.796;11.978;2024-02-15T05:19:09;97305.50;;;8.71;47.00
25350;BME280;13302;48.796;11.978;2024-02-15T05:21:58;97298.72;;;8.69;46.92
25350;BME280;13302;48.796;11.978;2024-02-15T05:24:45;97296.13;;;8.64;47.13
25350;BME280;13302;48.796;11.978;2024-02-15T05:27:32;97296.59;;;8.66;47.02
25350;BME280;13302;48.796;11.978;2024-02-15T05:30:20;97299.03;;;8.67;46.78
25350;BME280;13302;48.796;11.978;2024-02-15T05:33:07;97305.69;;;8.66;46.83
25350;BME280;13302;48.796;11.978;2024-02-15T05:35:57;97306.03;;;8.65;47.08
25350;BME280;13302;48.796;11.978;2024-02-15T05:38:44;97303.88;;;8.70;46.89
25350;BME280;13302;48.796;11.978;2024-02-15T05:41:32;97312.66;;;8.72;46.85
25350;BME280;13302;48.796;11.978;2024-02-15T05:44:19;97302.75;;;8.71;46.99
25350;BME280;13302;48.796;11.978;2024-02-15T05:47:07;97304.84;;;8.74;46.66
25350;BME280;13302;48.796;11.978;2024-02-15T05:49:54;97307.44;;;8.80;46.78
25350;BME280;13302;48.796;11.978;2024-02-15T05:52:41;97304.53;;;8.76;46.62
25350;BME280;13302;48.796;11.978;2024-02-15T05:55:28;97302.75;;;8.71;46.89
25350;BME280;13302;48.796;11.978;2024-02-15T05:58:18;97298.38;;;8.70;46.98
25350;BME280;13302;48.796;11.978;2024-02-15T06:01:06;97301.47;;;8.69;47.18
25350;BME280;13302;48.796;11.978;2024-02-15T06:03:58;97310.50;;;8.78;46.91
25350;BME280;13302;48.796;11.978;2024-02-15T06:06:47;97308.56;;;8.79;46.68
25350;BME280;13302;48.796;11.978;2024-02-15T06:09:37;97310.66;;;8.82;47.00
25350;BME280;13302;48.796;11.978;2024-02-15T06:12:26;97307.13;;;8.72;47.12
25350;BME280;13302;48.796;11.978;2024-02-15T06:15:14;97311.84;;;8.72;47.12
25350;BME280;13302;48.796;11.978;2024-02-15T06:18:05;97311.03;;;8.71;47.11
25350;BME280;13302;48.796;11.978;2024-02-15T06:20:56;97307.97;;;8.64;47.11
25350;BME280;13302;48.796;11.978;2024-02-15T06:23:47;97307.97;;;8.64;47.23
25350;BME280;13302;48.796;11.978;2024-02-15T06:26:35;97318.66;;;8.66;47.15
25350;BME280;13302;48.796;11.978;2024-02-15T06:29:22;97315.44;;;8.64;47.55
25350;BME280;13302;48.796;11.978;2024-02-15T06:32:32;97322.06;;;8.63;47.36
25350;BME280;13302;48.796;11.978;2024-02-15T06:35:38;97323.69;;;8.64;47.08
25350;BME280;13302;48.796;11.978;2024-02-15T06:38:43;97331.97;;;8.64;47.34
25350;BME280;13302;48.796;11.978;2024-02-15T06:41:49;97325.63;;;8.63;47.35
25350;BME280;13302;48.796;11.978;2024-02-15T06:44:37;97336.16;;;8.70;46.97
25350;BME280;13302;48.796;11.978;2024-02-15T06:47:27;97340.69;;;8.66;47.06
25350;BME280;13302;48.796;11.978;2024-02-15T06:50:14;97341.34;;;8.63;47.77
25350;BME280;13302;48.796;11.978;2024-02-15T06:53:01;97350.91;;;8.65;47.42
25350;BME280;13302;48.796;11.978;2024-02-15T06:55:48;97347.69;;;8.63;47.54
25350;BME280;13302;48.796;11.978;2024-02-15T06:58:36;97351.56;;;8.62;47.70
25350;BME280;13302;48.796;11.978;2024-02-15T07:01:24;97351.25;;;8.64;47.50
25350;BME280;13302;48.796;11.978;2024-02-15T07:04:12;97355.94;;;8.63;47.66
25350;BME280;13302;48.796;11.978;2024-02-15T07:06:59;97348.97;;;8.66;47.43
25350;BME280;13302;48.796;11.978;2024-02-15T07:09:47;97351.88;;;8.69;47.37
25350;BME280;13302;48.796;11.978;2024-02-15T07:12:34;97349.47;;;8.68;47.39
25350;BME280;13302;48.796;11.978;2024-02-15T07:15:21;97349.94;;;8.70;47.40
25350;BME280;13302;48.796;11.978;2024-02-15T07:18:08;97355.44;;;8.70;47.44
25350;BME280;13302;48.796;11.978;2024-02-15T07:20:56;97338.59;;;8.71;47.39
25350;BME280;13302;48.796;11.978;2024-02-15T07:23:48;97342.63;;;8.74;47.62
25350;BME280;13302;48.796;11.978;2024-02-15T07:26:35;97342.31;;;8.75;47.33
25350;BME280;13302;48.796;11.978;2024-02-15T07:29:23;97336.78;;;8.75;47.24
25350;BME280;13302;48.796;11.978;2024-02-15T07:32:11;97339.25;;;8.77;47.21
25350;BME280;13302;48.796;11.978;2024-02-15T07:34:58;97334.03;;;8.75;47.31
25350;BME280;13302;48.796;11.978;2024-02-15T07:37:51;97342.78;;;8.77;47.05
25350;BME280;13302;48.796;11.978;2024-02-15T07:40:39;97340.03;;;8.77;47.13
25350;BME280;13302;48.796;11.978;2024-02-15T07:43:28;97338.88;;;8.79;47.18
25350;BME280;13302;48.796;11.978;2024-02-15T07:46:16;97335.81;;;8.80;47.37
25350;BME280;13302;48.796;11.978;2024-02-15T07:49:03;97338.88;;;8.79;47.49
25350;BME280;13302;48.796;11.978;2024-02-15T07:51:50;97342.97;;;8.81;47.20
25350;BME280;13302;48.796;11.978;2024-02-15T07:54:40;97343.44;;;8.83;47.06
25350;BME280;13302;48.796;11.978;2024-02-15T07:57:27;97334.50;;;8.86;47.04
25350;BME280;13302;48.796;11.978;2024-02-15T08:00:14;97340.34;;;8.85;47.58
25350;BME280;13302;48.796;11.978;2024-02-15T08:03:03;97335.16;;;8.83;47.33
25350;BME280;13302;48.796;11.978;2024-02-15T08:05:50;97331.59;;;8.83;47.46
25350;BME280;13302;48.796;11.978;2024-02-15T08:08:40;97328.19;;;8.86;47.51
25350;BME280;13302;48.796;11.978;2024-02-15T08:11:28;97326.41;;;8.90;47.52
25350;BME280;13302;48.796;11.978;2024-02-15T08:14:15;97328.13;;;8.94;47.67
25350;BME280;13302;48.796;11.978;2024-02-15T08:17:02;97322.00;;;8.97;47.58
25350;BME280;13302;48.796;11.978;2024-02-15T08:19:49;97326.03;;;9.00;47.46
25350;BME280;13302;48.796;11.978;2024-02-15T08:22:38;97322.59;;;9.03;47.27
25350;BME280;13302;48.796;11.978;2024-02-15T08:25:25;97321.47;;;9.04;47.68
25350;BME280;13302;48.796;11.978;2024-02-15T08:28:12;97316.09;;;9.07;47.37
25350;BME280;13302;48.796;11.978;2024-02-15T08:31:00;97317.41;;;9.10;47.68
25350;BME280;13302;48.796;11.978;2024-02-15T08:33:47;97304.06;;;9.12;47.61
25350;BME280;13302;48.796;11.978;2024-02-15T08:36:34;97304.88;;;9.12;47.38
25350;BME280;13302;48.796;11.978;2024-02-15T08:39:21;97303.41;;;9.15;47.21
25350;BME280;13302;48.796;11.978;2024-02-15T08:42:08;97303.91;;;9.17;47.11
25350;BME280;13302;48.796;11.978;2024-02-15T08:44:57;97306.81;;;9.20;47.47
25350;BME280;13302;48.796;11.978;2024-02-15T08:47:44;97306.13;;;9.23;47.37
25350;BME280;13302;48.796;11.978;2024-02-15T08:50:33;97294.47;;;9.27;47.32
25350;BME280;13302;48.796;11.978;2024-02-15T08:53:20;97295.72;;;9.29;47.74
25350;BME280;13302;48.796;11.978;2024-02-15T08:56:08;97291.97;;;9.34;47.49
25350;BME280;13302;48.796;11.978;2024-02-15T08:58:56;97305.91;;;9.37;47.74
25350;BME280;13302;48.796;11.978;2024-02-15T09:01:50;97300.53;;;9.41;47.52
25350;BME280;13302;48.796;11.978;2024-02-15T09:04:37;97302.28;;;9.45;47.59
25350;BME280;13302;48.796;11.978;2024-02-15T09:07:26;97300.00;;;9.47;47.48
25350;BME280;13302;48.796;11.978;2024-02-15T09:10:14;97303.25;;;9.49;47.39
25350;BME280;13302;48.796;11.978;2024-02-15T09:13:04;97294.66;;;9.51;47.65
25350;BME280;13302;48.796;11.978;2024-02-15T09:15:52;97300.97;;;9.51;47.69
25350;BME280;13302;48.796;11.978;2024-02-15T09:18:39;97297.06;;;9.52;47.48
25350;BME280;13302;48.796;11.978;2024-02-15T09:21:32;97300.63;;;9.53;47.69
25350;BME280;13302;48.796;11.978;2024-02-15T09:24:20;97291.22;;;9.54;47.69
25350;BME280;13302;48.796;11.978;2024-02-15T09:27:07;97288.44;;;9.54;47.77
25350;BME280;13302;48.796;11.978;2024-02-15T09:29:54;97292.03;;;9.54;47.55
25350;BME280;13302;48.796;11.978;2024-02-15T09:32:43;97289.72;;;9.56;47.87
25350;BME280;13302;48.796;11.978;2024-02-15T09:35:31;97290.56;;;9.57;47.41
25350;BME280;13302;48.796;11.978;2024-02-15T09:38:18;97285.84;;;9.57;47.52
25350;BME280;13302;48.796;11.978;2024-02-15T09:41:06;97280.84;;;9.59;47.57
25350;BME280;13302;48.796;11.978;2024-02-15T09:43:54;97280.47;;;9.61;47.75
25350;BME280;13302;48.796;11.978;2024-02-15T09:46:43;97275.78;;;9.61;47.70
25350;BME280;13302;48.796;11.978;2024-02-15T09:49:36;97273.81;;;9.62;47.48
25350;BME280;13302;48.796;11.978;2024-02-15T09:52:28;97274.78;;;9.66;47.53
25350;BME280;13302;48.796;11.978;2024-02-15T09:55:22;97271.31;;;9.69;47.68
25350;BME280;13302;48.796;11.978;2024-02-15T09:58:11;97273.09;;;9.74;47.50
25350;BME280;13302;48.796;11.978;2024-02-15T10:01:03;97273.91;;;9.74;47.76
25350;BME280;13302;48.796;11.978;2024-02-15T10:03:53;97270.94;;;9.79;47.53
25350;BME280;13302;48.796;11.978;2024-02-15T10:06:40;97270.25;;;9.82;47.59
25350;BME280;13302;48.796;11.978;2024-02-15T10:09:29;97264.41;;;9.84;47.59
25350;BME280;13302;48.796;11.978;2024-02-15T10:12:16;97264.56;;;9.87;47.48
25350;BME280;13302;48.796;11.978;2024-02-15T10:15:03;97264.69;;;9.91;47.40
25350;BME280;13302;48.796;11.978;2024-02-15T10:17:55;97263.19;;;9.93;47.60
25350;BME280;13302;48.796;11.978;2024-02-15T10:20:42;97262.53;;;9.96;47.65
25350;BME280;13302;48.796;11.978;2024-02-15T10:23:33;97255.53;;;9.99;47.30
25350;BME280;13302;48.796;11.978;2024-02-15T10:26:21;97265.06;;;10.01;47.19
25350;BME280;13302;48.796;11.978;2024-02-15T10:29:11;97267.97;;;10.05;47.29
25350;BME280;13302;48.796;11.978;2024-02-15T10:32:00;97256.25;;;10.08;47.46
25350;BME280;13302;48.796;11.978;2024-02-15T10:34:47;97263.84;;;10.11;47.38
25350;BME280;13302;48.796;11.978;2024-02-15T10:37:34;97255.69;;;10.14;47.60
25350;BME280;13302;48.796;11.978;2024-02-15T10:40:21;97255.00;;;10.18;47.25
25350;BME280;13302;48.796;11.978;2024-02-15T10:43:09;97255.94;;;10.22;47.32
25350;BME280;13302;48.796;11.978;2024-02-15T10:46:00;97248.97;;;10.24;47.36
25350;BME280;13302;48.796;11.978;2024-02-15T10:48:47;97242.75;;;10.27;47.53
25350;BME280;13302;48.796;11.978;2024-02-15T10:51:35;97237.00;;;10.32;47.10
25350;BME280;13302;48.796;11.978;2024-02-15T10:55:03;97232.31;;;10.33;47.08
25350;BME280;13302;48.796;11.978;2024-02-15T10:57:52;97230.91;;;10.39;46.91
25350;BME280;13302;48.796;11.978;2024-02-15T11:00:41;97223.56;;;10.43;47.40
25350;BME280;13302;48.796;11.978;2024-02-15T11:03:35;97220.09;;;10.46;47.21
25350;BME280;13302;48.796;11.978;2024-02-15T11:06:27;97222.31;;;10.52;47.44
25350;BME280;13302;48.796;11.978;2024-02-15T11:09:17;97208.31;;;10.57;47.41
25350;BME280;13302;48.796;11.978;2024-02-15T11:12:05;97211.22;;;10.61;47.46
25350;BME280;13302;48.796;11.978;2024-02-15T11:14:53;97208.22;;;10.66;46.75
25350;BME280;13302;48.796;11.978;2024-02-15T11:17:47;97205.59;;;10.70;47.20
25350;BME280;13302;48.796;11.978;2024-02-15T11:23:24;97197.97;;;10.79;47.11
25350;BME280;13302;48.796;11.978;2024-02-15T11:26:45;97194.88;;;10.80;46.77
25350;BME280;13302;48.796;11.978;2024-02-15T11:32:58;97184.19;;;10.91;46.96
25350;BME280;13302;48.796;11.978;2024-02-15T11:36:02;97180.22;;;10.92;46.67
25350;BME280;13302;48.796;11.978;2024-02-15T11:38:53;97176.00;;;10.94;46.61
25350;BME280;13302;48.796;11.978;2024-02-15T11:41:40;97167.81;;;10.98;46.73
25350;BME280;13302;48.796;11.978;2024-02-15T11:44:27;97159.13;;;10.99;46.58
25350;BME280;13302;48.796;11.978;2024-02-15T11:47:16;97165.94;;;11.02;46.40
25350;BME280;13302;48.796;11.978;2024-02-15T11:50:10;97164.44;;;11.04;46.27
25350;BME280;13302;48.796;11.978;2024-02-15T11:53:03;97155.44;;;11.08;46.49
25350;BME280;13302;48.796;11.978;2024-02-15T11:56:00;97161.78;;;11.08;46.24
25350;BME280;13302;48.796;11.978;2024-02-15T11:59:01;97157.88;;;11.09;45.87
25350;BME280;13302;48.796;11.978;2024-02-15T12:01:49;97153.63;;;11.12;46.16
25350;BME280;13302;48.796;11.978;2024-02-15T12:05:03;97143.34;;;11.12;45.78
25350;BME280;13302;48.796;11.978;2024-02-15T12:08:10;97146.09;;;11.12;45.55
25350;BME280;13302;48.796;11.978;2024-02-15T12:11:16;97147.72;;;11.13;45.85
25350;BME280;13302;48.796;11.978;2024-02-15T12:14:22;97135.41;;;11.11;45.61
25350;BME280;13302;48.796;11.978;2024-02-15T12:17:28;97133.78;;;11.10;45.45
25350;BME280;13302;48.796;11.978;2024-02-15T12:20:33;97131.50;;;11.12;45.56
25350;BME280;13302;48.796;11.978;2024-02-15T12:23:21;97125.94;;;11.12;45.69
25350;BME280;13302;48.796;11.978;2024-02-15T12:26:08;97120.88;;;11.14;45.20
25350;BME280;13302;48.796;11.978;2024-02-15T12:28:56;97120.53;;;11.15;45.28
25350;BME280;13302;48.796;11.978;2024-02-15T12:31:44;97119.34;;;11.16;45.74
25350;BME280;13302;48.796;11.978;2024-02-15T12:34:32;97110.38;;;11.19;45.36
25350;BME280;13302;48.796;11.978;2024-02-15T12:37:22;97121.06;;;11.21;45.35
25350;BME280;13302;48.796;11.978;2024-02-15T12:40:16;97106.09;;;11.22;45.23
25350;BME280;13302;48.796;11.978;2024-02-15T12:43:07;97106.56;;;11.24;45.30
25350;BME280;13302;48.796;11.978;2024-02-15T12:45:55;97113.34;;;11.26;45.38
25350;BME280;13302;48.796;11.978;2024-02-15T12:48:45;97095.13;;;11.25;45.30
25350;BME280;13302;48.796;11.978;2024-02-15T12:51:33;97090.06;;;11.27;45.07
25350;BME280;13302;48.796;11.978;2024-02-15T12:54:24;97091.31;;;11.30;45.03
25350;BME280;13302;48.796;11.978;2024-02-15T12:57:12;97084.25;;;11.32;45.04
25350;BME280;13302;48.796;11.978;2024-02-15T13:00:04;97091.06;;;11.35;45.23
25350;BME280;13302;48.796;11.978;2024-02-15T13:02:59;97088.41;;;11.38;44.92
25350;BME280;13302;48.796;11.978;2024-02-15T13:05:46;97084.13;;;11.41;45.02
25350;BME280;13302;48.796;11.978;2024-02-15T13:08:35;97077.09;;;11.43;44.83
25350;BME280;13302;48.796;11.978;2024-02-15T13:11:23;97080.28;;;11.45;44.78
25350;BME280;13302;48.796;11.978;2024-02-15T13:14:12;97078.34;;;11.46;44.82
25350;BME280;13302;48.796;11.978;2024-02-15T13:17:00;97079.97;;;11.47;44.58
25350;BME280;13302;48.796;11.978;2024-02-15T13:19:48;97070.84;;;11.46;44.53
25350;BME280;13302;48.796;11.978;2024-02-15T13:22:36;97070.84;;;11.46;44.71
25350;BME280;13302;48.796;11.978;2024-02-15T13:25:25;97064.50;;;11.46;44.64
25350;BME280;13302;48.796;11.978;2024-02-15T13:28:12;97062.53;;;11.46;44.37
25350;BME280;13302;48.796;11.978;2024-02-15T13:31:00;97059.78;;;11.46;44.44
25350;BME280;13302;48.796;11.978;2024-02-15T13:33:48;97058.63;;;11.47;44.80
25350;BME280;13302;48.796;11.978;2024-02-15T13:36:35;97058.63;;;11.47;44.50
25350;BME280;13302;48.796;11.978;2024-02-15T13:39:23;97058.25;;;11.49;44.54
25350;BME280;13302;48.796;11.978;2024-02-15T13:42:10;97054.69;;;11.48;44.10
25350;BME280;13302;48.796;11.978;2024-02-15T13:44:57;97061.81;;;11.49;44.09
25350;BME280;13302;48.796;11.978;2024-02-15T13:47:45;97048.78;;;11.50;44.02
25350;BME280;13302;48.796;11.978;2024-02-15T13:50:34;97044.88;;;11.51;43.89
25350;BME280;13302;48.796;11.978;2024-02-15T13:53:22;97047.63;;;11.51;43.88
25350;BME280;13302;48.796;11.978;2024-02-15T13:56:12;97054.47;;;11.54;44.26
25350;BME280;13302;48.796;11.978;2024-02-15T13:58:59;97052.50;;;11.54;43.86
25350;BME280;13302;48.796;11.978;2024-02-15T14:01:51;97050.53;;;11.55;43.90
25350;BME280;13302;48.796;11.978;2024-02-15T14:04:40;97049.38;;;11.56;44.26
25350;BME280;13302;48.796;11.978;2024-02-15T14:07:27;97043.84;;;11.56;43.74
25350;BME280;13302;48.796;11.978;2024-02-15T14:10:14;97031.97;;;11.55;43.70
25350;BME280;13302;48.796;11.978;2024-02-15T14:13:01;97045.47;;;11.57;44.12
25350;BME280;13302;48.796;11.978;2024-02-15T14:15:49;97041.50;;;11.58;43.84
25350;BME280;13302;48.796;11.978;2024-02-15T14:18:36;97032.06;;;11.59;44.17
25350;BME280;13302;48.796;11.978;2024-02-15T14:21:23;97028.13;;;11.60;44.23
25350;BME280;13302;48.796;11.978;2024-02-15T14:24:10;97031.34;;;11.62;44.16
25350;BME280;13302;48.796;11.978;2024-02-15T14:26:57;97023.84;;;11.62;43.77
25350;BME280;13302;48.796;11.978;2024-02-15T14:29:44;97024.31;;;11.64;43.89
25350;BME280;13302;48.796;11.978;2024-02-15T14:32:51;97025.56;;;11.67;44.13
25350;BME280;13302;48.796;11.978;2024-02-15T14:35:52;97019.69;;;11.68;43.92
25350;BME280;13302;48.796;11.978;2024-02-15T14:38:40;97019.78;;;11.72;43.70
25350;BME280;13302;48.796;11.978;2024-02-15T14:41:27;97026.13;;;11.72;43.98
25350;BME280;13302;48.796;11.978;2024-02-15T14:44:18;97025.75;;;11.74;43.79
25350;BME280;13302;48.796;11.978;2024-02-15T14:47:05;97020.19;;;11.74;43.76
25350;BME280;13302;48.796;11.978;2024-02-15T14:49:52;97022.97;;;11.74;43.77
25350;BME280;13302;48.796;11.978;2024-02-15T14:52:39;97021.81;;;11.75;43.85
25350;BME280;13302;48.796;11.978;2024-02-15T14:55:27;97017.09;;;11.75;43.67
25350;BME280;13302;48.796;11.978;2024-02-15T14:58:15;97028.16;;;11.75;43.88
25350;BME280;13302;48.796;11.978;2024-02-15T15:01:05;97020.31;;;11.77;43.51